Time;durP1;ratioP1;P1;durP2;ratioP2;P2;SDS_P1;SDS_P2;PMS_P1;PMS_P2;Temp;Humidity;BMP_temperature;BMP_pressure;BME280_temperature;BME280_humidity;BME280_pressure;Samples;Min_cycle;Max_cycle;Signal;HPM_P1;HPM_P2
2023/05/15 00:02:11;;;;;;;9.38;4.53;;;;;;;12.29;78.07;101709.91;5095987;27;99177;-31
2023/05/15 00:04:37;;;;;;;6.75;4.78;;;;;;;12.30;78.47;101713.53;5096894;27;97838;-31
2023/05/15 00:07:02;;;;;;;10.45;5.30;;;;;;;12.27;78.32;101709.09;5096599;27;97660;-30
2023/05/15 00:09:27;;;;;;;9.40;4.88;;;;;;;12.23;78.57;101710.25;5097224;27;96837;-31
2023/05/15 00:11:53;;;;;;;9.00;5.28;;;;;;;12.22;79.11;101702.19;5096852;27;97962;-32
2023/05/15 00:14:18;;;;;;;9.63;5.55;;;;;;;12.20;79.17;101695.94;5096547;27;97764;-32
2023/05/15 00:16:43;;;;;;;9.40;5.22;;;;;;;12.17;79.52;101683.41;5097064;27;96676;-31
2023/05/15 00:19:09;;;;;;;11.65;5.55;;;;;;;12.18;79.18;101687.00;5078382;27;96836;-31
2023/05/15 00:21:34;;;;;;;10.52;5.22;;;;;;;12.19;79.06;101691.50;5096371;27;97856;-31
2023/05/15 00:24:00;;;;;;;10.13;5.20;;;;;;;12.19;78.74;101688.78;5096313;27;99289;-31
2023/05/15 00:26:25;;;;;;;10.98;5.65;;;;;;;12.16;79.93;101683.53;5096571;27;96524;-31
2023/05/15 00:28:50;;;;;;;9.85;5.28;;;;;;;12.15;79.06;101676.31;5095336;27;96868;-32
2023/05/15 00:31:16;;;;;;;10.88;5.60;;;;;;;12.11;79.36;101673.78;5095826;27;99374;-31
2023/05/15 00:33:42;;;;;;;10.05;5.05;;;;;;;12.12;79.01;101666.50;5077479;27;98975;-31
2023/05/15 00:36:08;;;;;;;11.10;5.40;;;;;;;12.12;79.49;101663.78;5096449;27;96657;-31
2023/05/15 00:38:33;;;;;;;14.52;5.85;;;;;;;12.09;79.87;101666.69;5077800;27;96897;-31
2023/05/15 00:41:00;;;;;;;9.00;4.93;;;;;;;12.06;80.08;101673.16;5096354;27;97604;-31
2023/05/15 00:43:27;;;;;;;10.23;5.40;;;;;;;12.06;80.72;101664.09;5077707;27;100881;-31
2023/05/15 00:45:53;;;;;;;8.15;4.63;;;;;;;12.03;80.43;101673.31;5077766;27;96701;-31
2023/05/15 00:48:21;;;;;;;9.35;5.18;;;;;;;12.01;80.50;101675.25;5060724;27;96805;-31
2023/05/15 00:50:49;;;;;;;9.90;5.75;;;;;;;12.00;80.05;101668.03;5076553;27;100943;-31
2023/05/15 00:53:15;;;;;;;8.23;5.28;;;;;;;12.00;80.04;101668.03;5077238;27;100741;-31
2023/05/15 00:55:41;;;;;;;11.68;6.00;;;;;;;12.01;80.48;101672.53;5096287;27;96697;-31
2023/05/15 00:58:07;;;;;;;10.98;5.18;;;;;;;11.97;80.80;101676.38;5077549;27;96816;-32
2023/05/15 01:00:32;;;;;;;9.13;5.72;;;;;;;11.97;80.16;101675.50;5095932;27;97461;-31
2023/05/15 01:02:58;;;;;;;9.40;5.60;;;;;;;11.94;80.49;101681.06;5077163;27;100663;-31
2023/05/15 01:05:23;;;;;;;8.27;4.68;;;;;;;11.89;80.79;101671.34;5096038;27;96553;-31
2023/05/15 01:08:01;;;;;;;8.75;5.22;;;;;;;11.89;81.14;101671.34;5096667;27;96771;-31
2023/05/15 01:10:27;;;;;;;8.52;4.78;;;;;;;11.85;81.05;101667.00;5095789;27;99073;-31
2023/05/15 01:12:54;;;;;;;8.82;5.05;;;;;;;11.87;80.79;101667.84;5095770;27;97331;-31
2023/05/15 01:15:19;;;;;;;8.95;4.82;;;;;;;11.86;80.77;101666.03;5076790;27;96579;-31
2023/05/15 01:17:45;;;;;;;8.35;5.40;;;;;;;11.83;80.65;101670.78;5095658;27;96937;-31
2023/05/15 01:20:11;;;;;;;6.90;4.20;;;;;;;11.84;80.86;101653.50;5095662;27;97255;-32
2023/05/15 01:22:36;;;;;;;8.13;4.47;;;;;;;11.86;80.66;101666.03;5076874;27;101674;-31
2023/05/15 01:25:29;;;;;;;7.45;4.15;;;;;;;11.82;80.88;101661.75;5096203;27;96563;-31
2023/05/15 01:28:02;;;;;;;6.15;4.22;;;;;;;11.78;81.09;101660.16;5096119;27;96618;-32
2023/05/15 01:30:31;;;;;;;9.18;4.68;;;;;;;11.80;80.89;101666.38;5095411;27;98053;-32
2023/05/15 01:33:07;;;;;;;8.02;5.00;;;;;;;11.78;80.85;101652.00;5076530;27;100639;-30
2023/05/15 01:35:42;;;;;;;7.50;4.53;;;;;;;11.78;80.62;101662.88;5077205;27;96552;-31
2023/05/15 01:38:20;;;;;;;7.05;4.55;;;;;;;11.71;80.82;101650.59;5077353;27;96687;-30
2023/05/15 01:40:48;;;;;;;8.93;4.97;;;;;;;11.67;80.69;101652.56;5078868;27;101237;-31
2023/05/15 01:43:17;;;;;;;7.93;5.25;;;;;;;11.59;80.69;101649.41;5080338;27;101286;-30
2023/05/15 01:45:43;;;;;;;9.30;4.45;;;;;;;11.58;81.34;101663.03;5080688;27;96697;-31
2023/05/15 01:48:11;;;;;;;9.20;4.65;;;;;;;11.54;81.30;101661.47;5080645;27;96790;-32
2023/05/15 01:50:38;;;;;;;7.05;4.10;;;;;;;11.52;81.33;101657.97;5080244;27;100847;-31
2023/05/15 01:53:07;;;;;;;6.35;4.32;;;;;;;11.52;80.89;101647.09;5080069;27;101552;-31
2023/05/15 01:55:33;;;;;;;8.93;5.10;;;;;;;11.51;81.59;101657.06;5080548;27;96662;-31
2023/05/15 01:58:01;;;;;;;7.55;5.20;;;;;;;11.49;81.66;101659.00;5099630;27;96780;-31
2023/05/15 02:00:28;;;;;;;6.90;4.57;;;;;;;11.48;81.71;101655.38;5098521;27;99978;-30
2023/05/15 02:02:55;;;;;;;6.85;4.10;;;;;;;11.49;81.29;101661.72;5079904;27;100869;-31
2023/05/15 02:05:21;;;;;;;5.75;3.88;;;;;;;11.55;81.30;101664.09;5079591;27;96846;-31
2023/05/15 02:07:47;;;;;;;5.57;3.67;;;;;;;11.56;81.38;101659.53;5079966;27;96879;-30
2023/05/15 02:10:13;;;;;;;6.88;4.40;;;;;;;11.54;81.72;101656.03;5098633;27;97902;-31
2023/05/15 02:12:40;;;;;;;11.35;4.93;;;;;;;11.51;81.58;101651.63;5098574;27;97901;-30
2023/05/15 02:15:07;;;;;;;8.38;4.65;;;;;;;11.50;81.32;101654.44;5098665;27;96492;-31
2023/05/15 02:17:33;;;;;;;5.85;4.00;;;;;;;11.48;81.96;101649.94;5080042;27;96807;-30
2023/05/15 02:19:58;;;;;;;7.65;4.72;;;;;;;11.49;82.19;101653.56;5098195;27;98876;-30
2023/05/15 02:22:24;;;;;;;7.25;4.07;;;;;;;11.47;82.42;101661.78;5098687;27;98064;-30
2023/05/15 02:24:49;;;;;;;6.95;3.53;;;;;;;11.44;82.50;101655.63;5098525;27;96517;-31
2023/05/15 02:27:26;;;;;;;7.30;4.20;;;;;;;11.46;81.98;101648.28;5098706;27;96783;-30
2023/05/15 02:30:28;;;;;;;8.50;4.78;;;;;;;11.45;82.32;101649.25;5079056;27;101325;-31
2023/05/15 02:33:24;;;;;;;7.45;3.88;;;;;;;11.44;82.45;101650.19;5078348;27;100899;-31
2023/05/15 02:35:58;;;;;;;8.07;4.75;;;;;;;11.43;82.36;101643.03;5098688;27;96653;-32
2023/05/15 02:38:29;;;;;;;6.05;4.07;;;;;;;11.39;82.26;101639.63;5080005;27;96734;-31
2023/05/15 02:40:55;;;;;;;12.87;5.00;;;;;;;11.36;82.46;101636.16;5079459;27;99960;-30
2023/05/15 02:43:21;;;;;;;7.38;4.93;;;;;;;11.37;82.29;101636.09;5079107;27;100815;-30
2023/05/15 02:45:47;;;;;;;5.80;4.30;;;;;;;11.36;82.24;101637.03;5098445;27;96459;-31
2023/05/15 02:48:14;;;;;;;9.38;5.15;;;;;;;11.35;82.45;101634.44;5098722;27;96862;-33
2023/05/15 02:50:41;;;;;;;8.77;4.75;;;;;;;11.34;82.55;101633.53;5096868;27;99578;-30
2023/05/15 02:53:08;;;;;;;10.88;4.90;;;;;;;11.35;82.47;101629.88;5079018;27;98805;-30
2023/05/15 02:55:34;;;;;;;7.90;4.20;;;;;;;11.34;82.52;101633.53;5078920;27;96608;-31
2023/05/15 02:58:02;;;;;;;8.27;5.35;;;;;;;11.38;82.61;101628.84;5079362;27;96900;-31
2023/05/15 03:00:27;;;;;;;8.57;4.47;;;;;;;11.34;82.56;101632.66;5078924;27;101021;-31
2023/05/15 03:02:53;;;;;;;10.00;4.97;;;;;;;11.33;82.62;101634.50;5097694;27;99202;-31
2023/05/15 03:05:18;;;;;;;9.30;5.30;;;;;;;11.31;82.48;101627.41;5098000;27;96749;-31
2023/05/15 03:07:44;;;;;;;6.38;4.60;;;;;;;11.34;82.81;101638.06;5079457;27;96852;-31
2023/05/15 03:10:09;;;;;;;7.85;5.10;;;;;;;11.30;82.48;101623.81;5097317;27;99251;-31
2023/05/15 03:12:35;;;;;;;8.55;4.63;;;;;;;11.32;82.54;101621.91;5097625;27;99374;-30
2023/05/15 03:15:00;;;;;;;8.35;5.25;;;;;;;11.34;82.67;101627.22;5097810;27;96661;-30
2023/05/15 03:17:26;;;;;;;8.43;4.60;;;;;;;11.29;82.57;101623.88;5097968;27;96737;-32
2023/05/15 03:19:51;;;;;;;7.63;4.32;;;;;;;11.28;82.38;101623.00;5097120;27;97399;-31
2023/05/15 03:22:16;;;;;;;9.27;4.63;;;;;;;11.25;83.21;101634.03;5097541;27;97788;-31
2023/05/15 03:24:42;;;;;;;7.95;5.10;;;;;;;11.24;82.76;101626.84;5097617;27;96669;-30
2023/05/15 03:27:07;;;;;;;8.38;4.78;;;;;;;11.24;82.79;101625.00;5097624;27;96859;-31
2023/05/15 03:29:33;;;;;;;8.88;5.47;;;;;;;11.20;82.47;101626.13;5097410;27;97553;-31
2023/05/15 03:31:58;;;;;;;7.68;4.50;;;;;;;11.23;82.94;101635.94;5096469;27;97919;-31
2023/05/15 03:34:23;;;;;;;6.32;4.30;;;;;;;11.17;83.42;101625.41;5097755;27;96598;-30
2023/05/15 03:36:49;;;;;;;6.80;3.72;;;;;;;11.17;83.38;101630.81;5098074;27;96816;-31
2023/05/15 03:39:14;;;;;;;5.63;4.32;;;;;;;11.17;83.50;101633.53;5097253;27;97931;-30
2023/05/15 03:41:39;;;;;;;6.60;4.25;;;;;;;11.14;84.08;101640.00;5096856;27;97767;-31
2023/05/15 03:44:05;;;;;;;7.40;4.43;;;;;;;11.13;84.17;101645.47;5097027;27;96543;-31
2023/05/15 03:46:30;;;;;;;8.70;5.03;;;;;;;11.12;83.66;101638.31;5097127;27;96691;-30
2023/05/15 03:48:55;;;;;;;8.40;4.97;;;;;;;11.14;84.30;101644.53;5096733;27;99236;-32
2023/05/15 03:51:22;;;;;;;10.45;4.70;;;;;;;11.11;84.37;101647.38;5097191;27;97790;-31
2023/05/15 03:53:48;;;;;;;9.68;4.88;;;;;;;11.09;84.46;101649.31;5078555;27;96790;-31
2023/05/15 03:56:13;;;;;;;7.05;5.03;;;;;;;11.10;84.17;101651.06;5096726;27;97521;-31
2023/05/15 03:58:39;;;;;;;7.22;4.80;;;;;;;11.08;84.35;101661.97;5096998;27;97983;-31
2023/05/15 04:01:05;;;;;;;8.32;5.00;;;;;;;11.08;84.21;101655.69;5097343;27;97329;-33
2023/05/15 04:03:30;;;;;;;7.63;4.25;;;;;;;11.09;84.70;101652.91;5096651;27;96668;-31
2023/05/15 04:05:56;;;;;;;7.15;4.60;;;;;;;11.08;84.76;101651.13;5096614;27;96815;-31
2023/05/15 04:08:21;;;;;;;7.78;4.43;;;;;;;11.04;85.47;101655.84;5096420;27;97131;-31
2023/05/15 04:10:46;;;;;;;6.95;4.30;;;;;;;11.03;85.37;101648.66;5096418;27;97808;-31
2023/05/15 04:13:12;;;;;;;8.73;4.90;;;;;;;11.04;84.53;101647.72;5097010;27;96491;-32
2023/05/15 04:15:37;;;;;;;8.35;4.35;;;;;;;11.12;85.21;101650.03;5097162;27;96976;-31
2023/05/15 04:18:02;;;;;;;6.78;4.35;;;;;;;11.13;85.07;101649.09;5096745;27;98054;-32
2023/05/15 04:20:28;;;;;;;6.47;4.78;;;;;;;11.10;84.68;101632.97;5096497;27;97803;-31
2023/05/15 04:22:53;;;;;;;8.55;3.83;;;;;;;11.14;83.71;101641.84;5096988;27;96542;-31
2023/05/15 04:25:23;;;;;;;6.90;4.32;;;;;;;11.20;83.88;101649.63;5096869;27;96786;-30
2023/05/15 04:27:48;;;;;;;8.80;4.90;;;;;;;11.21;84.83;101640.56;5077842;27;100773;-31
2023/05/15 04:30:14;;;;;;;8.18;3.97;;;;;;;11.23;83.49;101635.94;5096383;27;97363;-31
2023/05/15 04:32:40;;;;;;;6.18;4.68;;;;;;;11.27;83.81;101634.81;5095342;27;96603;-31
2023/05/15 04:35:11;;;;;;;6.82;4.38;;;;;;;11.29;83.61;101640.16;5077860;27;96797;-30
2023/05/15 04:37:37;;;;;;;8.82;4.63;;;;;;;11.31;83.65;101639.13;5096491;27;98067;-32
2023/05/15 04:40:03;;;;;;;8.88;5.10;;;;;;;11.35;83.47;101643.44;5077257;27;101353;-30
2023/05/15 04:42:28;;;;;;;9.13;4.55;;;;;;;11.38;82.90;101645.09;5096264;27;96678;-31
2023/05/15 04:44:53;;;;;;;8.95;5.00;;;;;;;11.39;83.73;101641.41;5096658;27;96840;-31
2023/05/15 04:47:19;;;;;;;10.20;5.45;;;;;;;11.43;83.38;101638.47;5096057;27;96726;-31
2023/05/15 04:49:46;;;;;;;8.85;5.13;;;;;;;11.44;84.06;101644.75;5096363;27;99246;-30
2023/05/15 04:52:11;;;;;;;7.18;4.45;;;;;;;11.43;83.10;101638.47;5077887;27;96513;-31
2023/05/15 04:54:37;;;;;;;9.45;4.88;;;;;;;11.46;83.08;101632.00;5096327;27;96830;-31
2023/05/15 04:57:02;;;;;;;7.53;4.45;;;;;;;11.45;83.75;101633.84;5076906;27;98774;-31
2023/05/15 04:59:28;;;;;;;9.55;4.75;;;;;;;11.46;83.28;101638.34;5095645;27;98795;-30
2023/05/15 05:01:54;;;;;;;7.45;4.78;;;;;;;11.51;82.88;101626.34;5096379;27;96570;-30
2023/05/15 05:04:19;;;;;;;7.57;4.05;;;;;;;11.51;83.36;101631.75;5096383;27;96847;-32
2023/05/15 05:06:45;;;;;;;6.95;4.43;;;;;;;11.54;82.39;101634.34;5095735;27;97927;-30
2023/05/15 05:09:11;;;;;;;5.68;3.75;;;;;;;11.48;82.79;101630.09;5077031;27;100847;-31
2023/05/15 05:11:38;;;;;;;6.45;4.13;;;;;;;11.51;83.21;101637.19;5096320;27;96811;-31
2023/05/15 05:14:03;;;;;;;6.75;3.35;;;;;;;11.43;83.20;101632.19;5078046;27;96876;-31
2023/05/15 05:16:29;;;;;;;6.53;3.72;;;;;;;11.42;82.84;101625.88;5099543;27;97949;-32
2023/05/15 05:18:54;;;;;;;5.80;3.45;;;;;;;11.42;82.86;101630.44;5099051;27;99304;-30
2023/05/15 05:21:20;;;;;;;5.38;3.80;;;;;;;11.45;82.40;101631.13;5099242;27;96537;-30
2023/05/15 05:23:46;;;;;;;7.07;4.15;;;;;;;11.50;82.98;101640.88;5099746;27;96814;-31
2023/05/15 05:26:11;;;;;;;6.43;4.30;;;;;;;11.50;82.47;101630.03;5099025;27;99415;-33
2023/05/15 05:28:36;;;;;;;6.10;4.03;;;;;;;11.50;83.32;101630.03;5099197;27;97297;-31
2023/05/15 05:31:02;;;;;;;5.45;3.72;;;;;;;11.52;82.60;101633.53;5080763;27;96872;-32
2023/05/15 05:33:27;;;;;;;7.00;4.18;;;;;;;11.66;81.86;101628.25;5099021;27;96812;-31
2023/05/15 05:35:52;;;;;;;7.93;4.13;;;;;;;11.76;81.68;101631.34;5099184;27;98539;-31
2023/05/15 05:38:18;;;;;;;7.35;4.35;;;;;;;11.82;82.23;101637.31;5099380;27;97484;-31
2023/05/15 05:40:43;;;;;;;6.03;4.10;;;;;;;11.92;81.63;101628.69;5099640;27;96619;-31
2023/05/15 05:43:08;;;;;;;8.32;4.88;;;;;;;12.03;80.98;101626.25;5099624;27;96770;-31
2023/05/15 05:45:34;;;;;;;7.40;4.35;;;;;;;12.20;80.68;101628.03;5098856;27;97323;-30
2023/05/15 05:47:59;;;;;;;8.52;4.68;;;;;;;12.29;80.53;101627.53;5099184;27;97785;-31
2023/05/15 05:50:25;;;;;;;9.30;4.90;;;;;;;12.38;80.95;101627.00;5099248;27;96585;-31
2023/05/15 05:52:50;;;;;;;6.13;4.20;;;;;;;12.43;80.05;101618.59;5099146;27;96783;-30
2023/05/15 05:55:16;;;;;;;7.30;4.50;;;;;;;12.47;80.00;101614.75;5098667;27;98920;-30
2023/05/15 05:57:41;;;;;;;10.73;4.78;;;;;;;12.42;80.35;101614.13;5098953;27;97819;-30
2023/05/15 06:00:09;;;;;;;8.98;5.40;;;;;;;12.43;79.98;101618.59;5099041;27;96619;-30
2023/05/15 06:02:35;;;;;;;9.30;4.97;;;;;;;12.40;80.27;101616.06;5099418;27;96562;-32
2023/05/15 06:05:00;;;;;;;7.25;4.78;;;;;;;12.41;79.79;101617.81;5098428;27;97950;-30
2023/05/15 06:07:26;;;;;;;7.20;4.18;;;;;;;12.41;79.76;101621.41;5098646;27;97783;-30
2023/05/15 06:09:51;;;;;;;8.45;4.60;;;;;;;12.37;80.18;101610.78;5098522;27;96534;-30
2023/05/15 06:12:17;;;;;;;5.90;4.28;;;;;;;12.38;80.22;101613.44;5099048;27;96620;-30
2023/05/15 06:14:42;;;;;;;7.07;4.68;;;;;;;12.38;79.57;101621.59;5079900;27;101635;-32
2023/05/15 06:17:07;;;;;;;6.82;4.88;;;;;;;12.43;79.46;101618.59;5098726;27;97835;-30
2023/05/15 06:19:33;;;;;;;7.63;4.82;;;;;;;12.39;79.69;101611.59;5098891;27;96628;-30
2023/05/15 06:21:58;;;;;;;8.88;5.03;;;;;;;12.44;79.79;101612.19;5098619;27;96895;-31
2023/05/15 06:24:23;;;;;;;8.02;4.60;;;;;;;12.46;79.34;101613.84;5098501;27;97804;-31
2023/05/15 06:26:49;;;;;;;9.23;5.30;;;;;;;12.50;79.72;101620.00;5098854;27;97372;-32
2023/05/15 06:29:14;;;;;;;8.88;5.32;;;;;;;12.50;79.80;101618.16;5098695;27;96640;-30
2023/05/15 06:31:40;;;;;;;8.23;5.63;;;;;;;12.50;79.86;101615.44;5097721;27;96839;-31
2023/05/15 06:34:05;;;;;;;7.35;5.05;;;;;;;12.53;79.72;101611.66;5097562;27;99467;-31
2023/05/15 06:36:30;;;;;;;10.10;5.82;;;;;;;12.55;79.64;101612.47;5098131;27;98287;-30
2023/05/15 06:38:56;;;;;;;9.07;5.55;;;;;;;12.58;79.55;101611.41;5098588;27;96398;-33
2023/05/15 06:41:21;;;;;;;8.57;4.88;;;;;;;12.62;79.27;101618.44;5098489;27;96874;-30
2023/05/15 06:43:46;;;;;;;8.77;5.75;;;;;;;12.65;79.41;101618.25;5097915;27;99970;-30
2023/05/15 06:46:15;;;;;;;8.55;5.68;;;;;;;12.69;79.07;101617.97;5098135;27;98262;-31
2023/05/15 06:48:40;;;;;;;8.20;4.97;;;;;;;12.70;79.52;101614.31;5098231;27;96598;-30
2023/05/15 06:51:05;;;;;;;8.80;4.30;;;;;;;12.74;78.83;101618.56;5098292;27;96825;-30
2023/05/15 06:53:31;;;;;;;7.43;5.03;;;;;;;12.77;78.58;101617.53;5098064;27;96746;-30
2023/05/15 06:55:56;;;;;;;10.27;5.47;;;;;;;12.80;78.96;101619.19;5097772;27;99372;-31
2023/05/15 06:58:22;;;;;;;7.45;4.85;;;;;;;12.78;78.94;101623.88;5097696;27;96598;-32
2023/05/15 07:00:47;;;;;;;6.53;4.45;;;;;;;12.76;79.60;101621.22;5097998;27;96920;-30
2023/05/15 07:03:13;;;;;;;8.25;4.63;;;;;;;12.79;79.37;101622.88;5097794;27;97333;-30
2023/05/15 07:05:38;;;;;;;10.30;4.80;;;;;;;12.84;79.56;101628.91;5097308;27;99197;-30
2023/05/15 07:08:04;;;;;;;10.23;5.68;;;;;;;12.86;80.04;101621.56;5079683;27;96562;-30
2023/05/15 07:10:30;;;;;;;7.85;4.57;;;;;;;12.84;79.41;101621.63;5097676;27;96886;-33
2023/05/15 07:12:55;;;;;;;9.65;5.35;;;;;;;12.81;79.41;101624.53;5097662;27;97967;-31
2023/05/15 07:15:20;;;;;;;9.45;5.40;;;;;;;12.85;79.26;101625.25;5098077;27;97358;-31
2023/05/15 07:17:46;;;;;;;11.32;5.85;;;;;;;12.81;79.50;101624.53;5097724;27;96618;-31
2023/05/15 07:20:11;;;;;;;8.18;5.82;;;;;;;12.87;79.80;101617.84;5097869;27;97027;-32
2023/05/15 07:22:37;;;;;;;7.80;5.22;;;;;;;12.90;79.44;101626.72;5096719;27;99287;-31
2023/05/15 07:25:03;;;;;;;12.00;5.88;;;;;;;12.87;79.41;101618.75;5078553;27;100818;-31
2023/05/15 07:27:29;;;;;;;12.10;6.40;;;;;;;12.90;79.56;101620.41;5078979;27;96640;-31
2023/05/15 07:29:54;;;;;;;10.23;5.85;;;;;;;12.90;79.54;101621.28;5097686;27;96823;-31
2023/05/15 07:32:20;;;;;;;8.63;4.85;;;;;;;12.92;79.51;101621.22;5092050;27;99280;-33
2023/05/15 07:34:45;;;;;;;9.60;4.93;;;;;;;12.96;79.05;101631.78;5097017;27;99306;-31
2023/05/15 07:37:10;;;;;;;10.20;5.32;;;;;;;12.99;79.49;101630.75;5096927;27;96713;-31
2023/05/15 07:39:36;;;;;;;7.97;4.93;;;;;;;13.04;79.79;101627.72;5098021;27;96788;-30
2023/05/15 07:42:01;;;;;;;8.60;5.20;;;;;;;13.08;78.98;101624.75;5097123;27;98157;-32
2023/05/15 07:44:26;;;;;;;8.88;5.18;;;;;;;13.12;79.07;101626.31;5078492;27;98197;-32
2023/05/15 07:46:55;;;;;;;8.82;5.68;;;;;;;13.15;79.00;101626.13;5096811;27;96575;-30
2023/05/15 07:49:20;;;;;;;8.45;5.72;;;;;;;13.20;78.89;101630.41;5097010;27;96833;-30
2023/05/15 07:51:45;;;;;;;8.32;5.50;;;;;;;13.24;78.82;101632.00;5097098;27;97878;-30
2023/05/15 07:54:11;;;;;;;9.60;5.20;;;;;;;13.23;78.77;101633.84;5096864;27;99104;-30
2023/05/15 07:56:36;;;;;;;9.52;5.20;;;;;;;13.22;78.76;101625.78;5097253;27;96529;-33
2023/05/15 07:59:02;;;;;;;8.85;5.35;;;;;;;13.28;78.66;101639.06;5096955;27;96848;-31
2023/05/15 08:01:28;;;;;;;9.38;6.22;;;;;;;13.25;79.04;101645.53;5078200;27;101251;-31
2023/05/15 08:03:53;;;;;;;10.02;5.53;;;;;;;13.21;78.79;101643.06;5097338;27;97853;-31
2023/05/15 08:06:18;;;;;;;14.13;5.90;;;;;;;13.17;78.89;101635.06;5097055;27;96618;-31
2023/05/15 08:08:44;;;;;;;10.07;5.78;;;;;;;13.14;79.16;101643.44;5097210;27;96823;-31
2023/05/15 08:11:09;;;;;;;11.05;6.68;;;;;;;13.09;79.23;101637.38;5096255;27;97322;-31
2023/05/15 08:13:34;;;;;;;10.38;6.10;;;;;;;13.07;79.34;101643.91;5096544;27;99310;-31
2023/05/15 08:16:00;;;;;;;9.32;5.88;;;;;;;13.06;80.07;101647.56;5097242;27;96597;-30
2023/05/15 08:18:25;;;;;;;11.65;6.78;;;;;;;13.03;80.13;101643.19;5097090;27;96789;-30
2023/05/15 08:20:51;;;;;;;14.07;6.30;;;;;;;13.03;79.93;101640.47;5096131;27;99547;-32
2023/05/15 08:23:16;;;;;;;8.95;5.57;;;;;;;13.04;80.01;101631.34;5096544;27;97795;-31
2023/05/15 08:25:41;;;;;;;11.10;6.25;;;;;;;13.07;80.18;101649.34;5096943;27;96721;-30
2023/05/15 08:28:07;;;;;;;14.65;6.95;;;;;;;13.02;79.88;101640.56;5097260;27;96760;-32
2023/05/15 08:30:32;;;;;;;12.75;7.05;;;;;;;13.00;80.64;101635.22;5096387;27;97931;-30
2023/05/15 08:32:57;;;;;;;12.35;7.15;;;;;;;13.02;80.42;101643.28;5095746;27;97775;-32
2023/05/15 08:35:23;;;;;;;12.95;7.18;;;;;;;13.01;80.89;101634.22;5096147;27;96621;-31
2023/05/15 08:37:48;;;;;;;12.77;8.02;;;;;;;13.07;80.73;101639.31;5096781;27;96771;-31
2023/05/15 08:40:14;;;;;;;13.75;7.93;;;;;;;13.11;80.16;101649.06;5096349;27;98044;-32
2023/05/15 08:42:45;;;;;;;15.90;7.93;;;;;;;13.13;80.84;101640.78;5096370;27;97795;-30
2023/05/15 08:45:13;;;;;;;16.45;7.72;;;;;;;13.11;80.86;101642.75;5096373;27;96601;-31
2023/05/15 08:47:40;;;;;;;15.55;8.27;;;;;;;13.12;81.48;101641.78;5096174;27;96842;-31
2023/05/15 08:50:13;;;;;;;14.95;8.05;;;;;;;13.15;81.41;101647.03;5094793;27;99047;-30
2023/05/15 08:52:45;;;;;;;14.70;7.97;;;;;;;13.11;81.47;101646.34;5096634;27;98320;-33
2023/05/15 08:55:12;;;;;;;14.43;8.02;;;;;;;13.15;81.20;101650.59;5096266;27;96633;-31
2023/05/15 08:57:38;;;;;;;17.20;8.82;;;;;;;13.15;81.51;101639.72;5077725;27;96684;-30
2023/05/15 09:00:08;;;;;;;16.23;8.35;;;;;;;13.19;81.25;101654.03;5076767;27;101150;-32
2023/05/15 09:02:38;;;;;;;15.55;8.38;;;;;;;13.16;82.00;101641.50;5077114;27;101513;-30
2023/05/15 09:05:05;;;;;;;15.93;8.60;;;;;;;13.20;81.95;101654.91;5077475;27;96549;-31
2023/05/15 09:07:30;;;;;;;16.48;9.20;;;;;;;13.14;82.38;101657.03;5095995;27;96783;-33
2023/05/15 09:09:57;;;;;;;20.70;10.13;;;;;;;13.11;82.33;101649.06;5095913;27;98545;-31
2023/05/15 09:12:24;;;;;;;17.10;8.80;;;;;;;13.12;83.17;101660.81;5077237;27;101234;-33
2023/05/15 09:14:50;;;;;;;14.75;7.60;;;;;;;13.06;83.07;101659.34;5077184;27;96660;-32
2023/05/15 09:17:15;;;;;;;17.02;7.65;;;;;;;13.12;82.52;101663.53;5096596;27;96801;-30
2023/05/15 09:19:42;;;;;;;20.90;8.93;;;;;;;13.13;82.29;101660.72;5095573;27;98886;-30
2023/05/15 09:22:23;;;;;;;17.33;8.68;;;;;;;13.14;82.44;101659.75;5076884;27;102490;-31
2023/05/15 09:24:51;;;;;;;14.73;7.55;;;;;;;13.11;82.74;101659.94;5076804;27;96686;-30
2023/05/15 09:27:18;;;;;;;17.38;9.18;;;;;;;13.13;82.60;101660.72;5077088;27;96617;-31
2023/05/15 09:29:44;;;;;;;15.43;7.82;;;;;;;13.12;82.79;101666.25;5076804;27;100946;-31
2023/05/15 09:32:13;;;;;;;18.77;8.68;;;;;;;13.17;82.89;101669.56;5092833;27;97838;-31
2023/05/15 09:34:41;;;;;;;17.52;8.38;;;;;;;13.20;81.83;101657.63;5074261;27;96641;-32
2023/05/15 09:37:09;;;;;;;17.02;7.65;;;;;;;13.18;83.05;101653.16;5077257;27;96823;-31
2023/05/15 09:39:42;;;;;;;15.02;6.82;;;;;;;13.19;83.20;101651.31;5076557;27;100804;-30
2023/05/15 09:42:12;;;;;;;17.08;8.13;;;;;;;13.30;82.55;101659.75;5076708;27;101017;-31
2023/05/15 09:44:43;;;;;;;16.85;7.63;;;;;;;13.38;82.20;101654.72;5077074;27;96769;-30
2023/05/15 09:47:13;;;;;;;13.32;6.60;;;;;;;13.49;82.24;101658.63;5076894;27;96900;-30
2023/05/15 09:49:39;;;;;;;16.65;7.95;;;;;;;13.58;81.91;101648.03;5093683;27;98048;-31
2023/05/15 09:52:08;;;;;;;14.05;7.28;;;;;;;13.75;81.51;101643.41;5076535;27;99355;-31
2023/05/15 09:54:34;;;;;;;12.68;6.80;;;;;;;14.05;80.68;101648.78;5076871;27;96643;-30
2023/05/15 09:57:11;;;;;;;16.08;8.18;;;;;;;14.19;80.66;101648.78;5090543;27;96814;-30
2023/05/15 09:59:44;;;;;;;10.88;5.85;;;;;;;14.22;79.40;101648.56;5075862;27;100800;-30
2023/05/15 10:02:22;;;;;;;13.68;6.85;;;;;;;14.25;80.20;101652.94;5095798;27;99259;-30
2023/05/15 10:04:54;;;;;;;14.90;6.90;;;;;;;14.17;80.06;101649.84;5080517;27;96689;-31
2023/05/15 10:07:30;;;;;;;13.80;7.40;;;;;;;14.14;80.03;101655.50;5099144;27;96902;-30
2023/05/15 10:09:56;;;;;;;14.40;6.53;;;;;;;14.09;79.72;101658.53;5079946;27;101410;-32
2023/05/15 10:12:22;;;;;;;11.68;6.35;;;;;;;14.00;80.11;101646.34;5098639;27;97837;-32
2023/05/15 10:14:49;;;;;;;9.60;5.35;;;;;;;13.99;80.24;101660.97;5079640;27;96511;-31
2023/05/15 10:17:16;;;;;;;11.63;5.75;;;;;;;13.97;79.96;101662.03;5080229;27;96885;-31
2023/05/15 10:19:42;;;;;;;9.35;4.97;;;;;;;13.92;80.23;101664.13;5079801;27;100925;-31
2023/05/15 10:22:10;;;;;;;8.60;5.32;;;;;;;13.89;80.25;101662.47;5098433;27;98261;-31
2023/05/15 10:24:40;;;;;;;9.13;5.60;;;;;;;13.89;80.21;101661.63;5080170;27;96540;-30
2023/05/15 10:27:08;;;;;;;13.27;6.05;;;;;;;13.88;80.19;101676.22;5099000;27;96706;-30
2023/05/15 10:29:34;;;;;;;12.32;5.80;;;;;;;13.84;80.50;101672.78;5079549;27;100940;-32
2023/05/15 10:32:00;;;;;;;13.73;5.03;;;;;;;13.85;80.26;101673.66;5097677;27;98953;-32
2023/05/15 10:34:26;;;;;;;8.90;5.90;;;;;;;13.83;80.03;101668.34;5098809;27;96555;-33
2023/05/15 10:36:53;;;;;;;8.57;5.13;;;;;;;13.83;80.47;101672.91;5079860;27;96832;-30
2023/05/15 10:39:19;;;;;;;9.55;4.97;;;;;;;13.84;80.34;101670.06;5097759;27;97841;-30
2023/05/15 10:41:45;;;;;;;12.18;4.60;;;;;;;13.81;80.29;101673.00;5079403;27;101099;-30
2023/05/15 10:44:13;;;;;;;12.77;5.28;;;;;;;13.76;80.75;101669.69;5098397;27;96786;-31
2023/05/15 10:46:39;;;;;;;9.20;5.00;;;;;;;13.76;80.70;101675.13;5098174;27;96850;-31
2023/05/15 10:49:05;;;;;;;8.65;4.43;;;;;;;13.72;80.60;101662.66;5097840;27;99628;-31
2023/05/15 10:51:32;;;;;;;10.05;4.93;;;;;;;13.76;80.51;101670.56;5097797;27;99133;-31
2023/05/15 10:53:59;;;;;;;9.32;4.88;;;;;;;13.79;80.60;101667.63;5079721;27;96593;-30
2023/05/15 10:56:28;;;;;;;7.85;4.45;;;;;;;13.80;80.24;101680.28;5079960;27;96842;-30
2023/05/15 10:58:54;;;;;;;8.43;4.82;;;;;;;13.81;80.38;101671.13;5079131;27;100824;-33
2023/05/15 11:01:28;;;;;;;8.43;4.60;;;;;;;13.85;80.42;101671.84;5078951;27;100825;-31
2023/05/15 11:04:14;;;;;;;9.43;4.82;;;;;;;13.86;80.08;101679.03;5078944;27;96589;-31
2023/05/15 11:06:47;;;;;;;7.65;4.55;;;;;;;13.90;79.91;101658.81;5079067;27;96820;-31
2023/05/15 11:09:35;;;;;;;10.18;3.88;;;;;;;13.94;79.87;101662.19;5079232;27;101170;-30
2023/05/15 11:12:02;;;;;;;6.35;3.67;;;;;;;13.94;79.71;101674.00;5078037;27;101251;-30
2023/05/15 11:14:39;;;;;;;6.95;3.88;;;;;;;13.96;79.46;101668.44;5079327;27;96669;-31
2023/05/15 11:17:09;;;;;;;4.15;2.60;;;;;;;13.97;79.17;101668.34;5098093;27;96602;-32
2023/05/15 11:19:56;;;;;;;3.80;2.15;;;;;;;13.97;79.33;101672.94;5078905;27;101237;-30
2023/05/15 11:22:28;;;;;;;6.25;2.15;;;;;;;13.95;79.01;101666.69;5097780;27;99553;-30